Central Virginia Flyers


Central Virginia Flyers is a 10 member flying club based in Richmond, VA at Hanover County Airport (KOFP). We own N787AT, a 1977 Cessna 172 with 180hp conversion. If you are interested in membership, please contact Brenton at brenton@cvflyers.org.


Aviation Digital Data Service (ADDS)

Output produced by METARs form (2323 UTC 01 March 2015)
found at http://aviationweather.gov/adds/metars/
 
KOFP 012254Z AUTO 19004KT 3SM BR OVC004 M01/M01 A3037 RMK AO2 FZRAE24 SLP285 P0001 I1002 T10061011
KRIC 012254Z 15005KT 4SM BR OVC003 00/M01 A3035 RMK AO2 FZRAE27FZDZB27E40 SLP285 P0000 T00001011
KRIC 012058Z 0121/0218 VRB03KT 5SM -FZRA BR BKN007 OVC020 
     TEMPO 0121/0124 2SM -FZRA BR OVC015 
     FM020200 23004KT 3SM BR OVC015 
     FM020800 22005KT 5SM BR OVC035 
     FM021300 24008KT P6SM SCT035 OVC060